sensor_id;sensor_type;location;lat;lon;timestamp;temperature;humidity
8662;DHT22;29684;47.722;9.388;2023-07-30T00:02:07;18.10;99.90
8662;DHT22;29684;47.722;9.388;2023-07-30T00:04:51;18.00;99.90
8662;DHT22;29684;47.722;9.388;2023-07-30T00:07:35;18.00;99.90
8662;DHT22;29684;47.722;9.388;2023-07-30T00:10:19;18.00;99.90
8662;DHT22;29684;47.722;9.388;2023-07-30T00:13:03;18.00;99.90
8662;DHT22;29684;47.722;9.388;2023-07-30T00:15:47;18.00;99.90
8662;DHT22;29684;47.722;9.388;2023-07-30T00:18:32;17.90;99.90
8662;DHT22;29684;47.722;9.388;2023-07-30T00:21:16;17.90;99.90
8662;DHT22;29684;47.722;9.388;2023-07-30T00:24:00;17.90;99.90
8662;DHT22;29684;47.722;9.388;2023-07-30T00:26:44;17.90;99.90
8662;DHT22;29684;47.722;9.388;2023-07-30T00:29:28;17.90;99.90
8662;DHT22;29684;47.722;9.388;2023-07-30T00:32:12;17.80;99.90
8662;DHT22;29684;47.722;9.388;2023-07-30T00:35:00;17.70;99.90
8662;DHT22;29684;47.722;9.388;2023-07-30T00:37:44;17.70;99.90
8662;DHT22;29684;47.722;9.388;2023-07-30T00:40:28;17.80;99.90
8662;DHT22;29684;47.722;9.388;2023-07-30T00:43:12;17.80;99.90
8662;DHT22;29684;47.722;9.388;2023-07-30T00:45:56;17.80;99.90
8662;DHT22;29684;47.722;9.388;2023-07-30T00:48:40;17.90;99.90
8662;DHT22;29684;47.722;9.388;2023-07-30T00:51:26;17.90;99.90
8662;DHT22;29684;47.722;9.388;2023-07-30T00:54:11;17.90;99.90
8662;DHT22;29684;47.722;9.388;2023-07-30T00:56:55;17.80;99.90
8662;DHT22;29684;47.722;9.388;2023-07-30T00:59:40;17.80;99.90
8662;DHT22;29684;47.722;9.388;2023-07-30T01:02:25;17.80;99.90
8662;DHT22;29684;47.722;9.388;2023-07-30T01:05:09;17.90;99.90
8662;DHT22;29684;47.722;9.388;2023-07-30T01:07:54;17.90;99.90
8662;DHT22;29684;47.722;9.388;2023-07-30T01:10:39;17.90;99.90
8662;DHT22;29684;47.722;9.388;2023-07-30T01:13:25;18.00;99.90
8662;DHT22;29684;47.722;9.388;2023-07-30T01:16:11;17.90;99.90
8662;DHT22;29684;47.722;9.388;2023-07-30T01:18:55;17.90;99.90
8662;DHT22;29684;47.722;9.388;2023-07-30T01:21:40;18.00;99.90
8662;DHT22;29684;47.722;9.388;2023-07-30T01:24:24;18.10;99.90
8662;DHT22;29684;47.722;9.388;2023-07-30T01:27:14;18.10;99.90
8662;DHT22;29684;47.722;9.388;2023-07-30T01:30:30;18.10;99.90
8662;DHT22;29684;47.722;9.388;2023-07-30T01:33:15;18.10;99.90
8662;DHT22;29684;47.722;9.388;2023-07-30T01:36:00;18.10;99.90
8662;DHT22;29684;47.722;9.388;2023-07-30T01:38:45;18.00;99.90
8662;DHT22;29684;47.722;9.388;2023-07-30T01:41:30;18.00;99.90
8662;DHT22;29684;47.722;9.388;2023-07-30T01:44:14;17.90;99.90
8662;DHT22;29684;47.722;9.388;2023-07-30T01:46:58;18.00;99.90
8662;DHT22;29684;47.722;9.388;2023-07-30T01:49:42;17.90;99.90
8662;DHT22;29684;47.722;9.388;2023-07-30T01:52:26;17.80;99.90
8662;DHT22;29684;47.722;9.388;2023-07-30T01:55:10;17.70;99.90
8662;DHT22;29684;47.722;9.388;2023-07-30T01:57:54;17.70;99.90
8662;DHT22;29684;47.722;9.388;2023-07-30T02:00:39;17.60;99.90
8662;DHT22;29684;47.722;9.388;2023-07-30T02:03:24;17.60;99.90
8662;DHT22;29684;47.722;9.388;2023-07-30T02:06:09;17.50;99.90
8662;DHT22;29684;47.722;9.388;2023-07-30T02:08:55;17.50;99.90
8662;DHT22;29684;47.722;9.388;2023-07-30T02:11:39;17.40;99.90
8662;DHT22;29684;47.722;9.388;2023-07-30T02:14:23;17.30;99.90
8662;DHT22;29684;47.722;9.388;2023-07-30T02:17:07;17.30;99.90
8662;DHT22;29684;47.722;9.388;2023-07-30T02:19:51;17.20;99.90
8662;DHT22;29684;47.722;9.388;2023-07-30T02:22:35;17.20;99.90
8662;DHT22;29684;47.722;9.388;2023-07-30T02:25:19;17.10;99.90
8662;DHT22;29684;47.722;9.388;2023-07-30T02:28:03;17.10;99.90
8662;DHT22;29684;47.722;9.388;2023-07-30T02:30:48;17.10;99.90
8662;DHT22;29684;47.722;9.388;2023-07-30T02:33:32;17.10;99.90
8662;DHT22;29684;47.722;9.388;2023-07-30T02:36:16;17.10;99.90
8662;DHT22;29684;47.722;9.388;2023-07-30T02:39:00;17.00;99.90
8662;DHT22;29684;47.722;9.388;2023-07-30T02:41:44;17.00;99.90
8662;DHT22;29684;47.722;9.388;2023-07-30T02:44:28;16.90;99.90
8662;DHT22;29684;47.722;9.388;2023-07-30T02:47:12;16.90;99.90
8662;DHT22;29684;47.722;9.388;2023-07-30T02:49:56;16.80;99.90
8662;DHT22;29684;47.722;9.388;2023-07-30T02:52:43;16.80;99.90
8662;DHT22;29684;47.722;9.388;2023-07-30T02:55:28;16.80;99.90
8662;DHT22;29684;47.722;9.388;2023-07-30T02:58:12;16.90;99.90
8662;DHT22;29684;47.722;9.388;2023-07-30T03:01:05;16.90;99.90
8662;DHT22;29684;47.722;9.388;2023-07-30T03:03:49;17.00;99.90
8662;DHT22;29684;47.722;9.388;2023-07-30T03:06:34;17.00;99.90
8662;DHT22;29684;47.722;9.388;2023-07-30T03:09:18;17.00;99.90
8662;DHT22;29684;47.722;9.388;2023-07-30T03:12:02;17.00;99.90
8662;DHT22;29684;47.722;9.388;2023-07-30T03:14:47;17.00;99.90
8662;DHT22;29684;47.722;9.388;2023-07-30T03:17:31;17.10;99.90
8662;DHT22;29684;47.722;9.388;2023-07-30T03:20:15;17.10;99.90
8662;DHT22;29684;47.722;9.388;2023-07-30T03:22:59;17.10;99.90
8662;DHT22;29684;47.722;9.388;2023-07-30T03:25:43;17.00;99.90
8662;DHT22;29684;47.722;9.388;2023-07-30T03:28:27;17.00;99.90
8662;DHT22;29684;47.722;9.388;2023-07-30T03:31:12;16.90;99.90
8662;DHT22;29684;47.722;9.388;2023-07-30T03:33:56;16.90;99.90
8662;DHT22;29684;47.722;9.388;2023-07-30T03:36:40;16.90;99.90
8662;DHT22;29684;47.722;9.388;2023-07-30T03:39:24;16.90;99.90
8662;DHT22;29684;47.722;9.388;2023-07-30T03:42:08;16.90;99.90
8662;DHT22;29684;47.722;9.388;2023-07-30T03:44:52;16.90;99.90
8662;DHT22;29684;47.722;9.388;2023-07-30T03:47:37;16.80;99.90
8662;DHT22;29684;47.722;9.388;2023-07-30T03:50:21;16.70;99.90
8662;DHT22;29684;47.722;9.388;2023-07-30T03:53:05;16.70;99.90
8662;DHT22;29684;47.722;9.388;2023-07-30T03:55:49;16.60;99.90
8662;DHT22;29684;47.722;9.388;2023-07-30T03:58:33;16.60;99.90
8662;DHT22;29684;47.722;9.388;2023-07-30T04:01:18;16.60;99.90
8662;DHT22;29684;47.722;9.388;2023-07-30T04:04:05;16.70;99.90
8662;DHT22;29684;47.722;9.388;2023-07-30T04:06:49;16.70;99.90
8662;DHT22;29684;47.722;9.388;2023-07-30T04:09:33;16.80;99.90
8662;DHT22;29684;47.722;9.388;2023-07-30T04:12:17;16.80;99.90
8662;DHT22;29684;47.722;9.388;2023-07-30T04:15:03;16.90;99.90
8662;DHT22;29684;47.722;9.388;2023-07-30T04:17:47;17.00;99.90
8662;DHT22;29684;47.722;9.388;2023-07-30T04:20:31;17.10;99.90
8662;DHT22;29684;47.722;9.388;2023-07-30T04:23:15;17.20;99.90
8662;DHT22;29684;47.722;9.388;2023-07-30T04:25:59;17.10;99.90
8662;DHT22;29684;47.722;9.388;2023-07-30T04:28:44;17.10;99.90
8662;DHT22;29684;47.722;9.388;2023-07-30T04:31:29;17.00;99.90
8662;DHT22;29684;47.722;9.388;2023-07-30T04:34:13;17.00;99.90
8662;DHT22;29684;47.722;9.388;2023-07-30T04:36:57;17.00;99.90
8662;DHT22;29684;47.722;9.388;2023-07-30T04:39:41;17.00;99.90
8662;DHT22;29684;47.722;9.388;2023-07-30T04:42:28;17.00;99.90
8662;DHT22;29684;47.722;9.388;2023-07-30T04:45:12;17.10;99.90
8662;DHT22;29684;47.722;9.388;2023-07-30T04:47:56;17.20;99.90
8662;DHT22;29684;47.722;9.388;2023-07-30T04:50:41;17.30;99.90
8662;DHT22;29684;47.722;9.388;2023-07-30T04:53:26;17.50;99.90
8662;DHT22;29684;47.722;9.388;2023-07-30T04:56:10;17.50;99.90
8662;DHT22;29684;47.722;9.388;2023-07-30T04:58:54;17.60;99.90
8662;DHT22;29684;47.722;9.388;2023-07-30T05:01:38;17.60;99.90
8662;DHT22;29684;47.722;9.388;2023-07-30T05:04:22;17.70;99.90
8662;DHT22;29684;47.722;9.388;2023-07-30T05:07:06;17.90;99.90
8662;DHT22;29684;47.722;9.388;2023-07-30T05:09:50;18.00;99.90
8662;DHT22;29684;47.722;9.388;2023-07-30T05:12:34;18.00;99.90
8662;DHT22;29684;47.722;9.388;2023-07-30T05:15:18;18.00;99.90
8662;DHT22;29684;47.722;9.388;2023-07-30T05:18:02;18.10;99.90
8662;DHT22;29684;47.722;9.388;2023-07-30T05:20:46;18.20;99.90
8662;DHT22;29684;47.722;9.388;2023-07-30T05:23:31;18.40;99.90
8662;DHT22;29684;47.722;9.388;2023-07-30T05:26:15;18.50;99.90
8662;DHT22;29684;47.722;9.388;2023-07-30T05:28:59;18.60;99.90
8662;DHT22;29684;47.722;9.388;2023-07-30T05:31:43;18.70;99.90
8662;DHT22;29684;47.722;9.388;2023-07-30T05:34:27;18.80;99.90
8662;DHT22;29684;47.722;9.388;2023-07-30T05:37:11;18.90;99.90
8662;DHT22;29684;47.722;9.388;2023-07-30T05:39:55;19.00;99.90
8662;DHT22;29684;47.722;9.388;2023-07-30T05:42:39;19.30;99.90
8662;DHT22;29684;47.722;9.388;2023-07-30T05:45:24;19.50;99.90
8662;DHT22;29684;47.722;9.388;2023-07-30T05:48:08;19.50;99.90
8662;DHT22;29684;47.722;9.388;2023-07-30T05:50:52;19.50;99.90
8662;DHT22;29684;47.722;9.388;2023-07-30T05:53:37;19.40;99.90
8662;DHT22;29684;47.722;9.388;2023-07-30T05:56:21;19.40;99.90
8662;DHT22;29684;47.722;9.388;2023-07-30T05:59:05;19.30;99.90
8662;DHT22;29684;47.722;9.388;2023-07-30T06:01:50;19.20;99.90
8662;DHT22;29684;47.722;9.388;2023-07-30T06:04:34;19.30;99.90
8662;DHT22;29684;47.722;9.388;2023-07-30T06:07:18;19.40;99.90
8662;DHT22;29684;47.722;9.388;2023-07-30T06:10:02;19.50;99.90
8662;DHT22;29684;47.722;9.388;2023-07-30T06:12:46;19.60;99.90
8662;DHT22;29684;47.722;9.388;2023-07-30T06:15:31;19.60;99.90
8662;DHT22;29684;47.722;9.388;2023-07-30T06:18:16;19.60;99.90
8662;DHT22;29684;47.722;9.388;2023-07-30T06:21:00;19.60;99.90
8662;DHT22;29684;47.722;9.388;2023-07-30T06:23:44;19.60;99.90
8662;DHT22;29684;47.722;9.388;2023-07-30T06:26:28;19.70;99.90
8662;DHT22;29684;47.722;9.388;2023-07-30T06:29:12;19.70;99.90
8662;DHT22;29684;47.722;9.388;2023-07-30T06:31:56;19.70;99.90
8662;DHT22;29684;47.722;9.388;2023-07-30T06:34:40;19.70;99.90
8662;DHT22;29684;47.722;9.388;2023-07-30T06:37:24;19.70;99.90
8662;DHT22;29684;47.722;9.388;2023-07-30T06:40:09;19.80;99.90
8662;DHT22;29684;47.722;9.388;2023-07-30T06:42:53;19.70;99.90
8662;DHT22;29684;47.722;9.388;2023-07-30T06:45:37;19.80;99.90
8662;DHT22;29684;47.722;9.388;2023-07-30T06:48:21;20.00;99.90
8662;DHT22;29684;47.722;9.388;2023-07-30T06:51:06;19.90;99.90
8662;DHT22;29684;47.722;9.388;2023-07-30T06:53:51;20.00;99.90
8662;DHT22;29684;47.722;9.388;2023-07-30T06:56:35;20.00;99.90
8662;DHT22;29684;47.722;9.388;2023-07-30T06:59:19;20.10;99.90
8662;DHT22;29684;47.722;9.388;2023-07-30T07:02:03;20.00;99.90
8662;DHT22;29684;47.722;9.388;2023-07-30T07:04:49;20.10;99.90
8662;DHT22;29684;47.722;9.388;2023-07-30T07:07:33;20.20;99.90
8662;DHT22;29684;47.722;9.388;2023-07-30T07:10:18;20.20;99.90
8662;DHT22;29684;47.722;9.388;2023-07-30T07:13:02;20.40;99.90
8662;DHT22;29684;47.722;9.388;2023-07-30T07:15:46;20.50;99.90
8662;DHT22;29684;47.722;9.388;2023-07-30T07:18:30;20.60;99.90
8662;DHT22;29684;47.722;9.388;2023-07-30T07:21:14;20.50;99.90
8662;DHT22;29684;47.722;9.388;2023-07-30T07:23:59;20.60;99.90
8662;DHT22;29684;47.722;9.388;2023-07-30T07:26:43;20.70;99.90
8662;DHT22;29684;47.722;9.388;2023-07-30T07:29:28;20.60;99.90
8662;DHT22;29684;47.722;9.388;2023-07-30T07:32:12;20.60;99.90
8662;DHT22;29684;47.722;9.388;2023-07-30T07:34:57;20.60;99.90
8662;DHT22;29684;47.722;9.388;2023-07-30T07:37:41;20.70;99.90
8662;DHT22;29684;47.722;9.388;2023-07-30T07:40:25;20.70;99.90
8662;DHT22;29684;47.722;9.388;2023-07-30T07:43:09;20.90;99.90
8662;DHT22;29684;47.722;9.388;2023-07-30T07:45:53;20.90;99.90
8662;DHT22;29684;47.722;9.388;2023-07-30T07:48:37;20.80;99.90
8662;DHT22;29684;47.722;9.388;2023-07-30T07:51:21;20.70;99.90
8662;DHT22;29684;47.722;9.388;2023-07-30T07:54:06;20.70;99.90
8662;DHT22;29684;47.722;9.388;2023-07-30T07:56:51;18.90;99.90
8662;DHT22;29684;47.722;9.388;2023-07-30T07:59:35;20.70;99.90
8662;DHT22;29684;47.722;9.388;2023-07-30T08:02:19;20.70;99.90
8662;DHT22;29684;47.722;9.388;2023-07-30T08:05:03;20.90;99.90
8662;DHT22;29684;47.722;9.388;2023-07-30T08:07:48;21.10;99.90
8662;DHT22;29684;47.722;9.388;2023-07-30T08:10:31;21.40;99.90
8662;DHT22;29684;47.722;9.388;2023-07-30T08:13:16;21.60;99.90
8662;DHT22;29684;47.722;9.388;2023-07-30T08:16:00;21.70;99.90
8662;DHT22;29684;47.722;9.388;2023-07-30T08:18:45;21.80;99.90
8662;DHT22;29684;47.722;9.388;2023-07-30T08:21:29;21.60;99.90
8662;DHT22;29684;47.722;9.388;2023-07-30T08:24:13;21.60;99.90
8662;DHT22;29684;47.722;9.388;2023-07-30T08:26:57;21.70;99.90
8662;DHT22;29684;47.722;9.388;2023-07-30T08:29:41;21.70;99.90
8662;DHT22;29684;47.722;9.388;2023-07-30T08:32:25;21.60;99.90
8662;DHT22;29684;47.722;9.388;2023-07-30T08:35:10;21.70;99.90
8662;DHT22;29684;47.722;9.388;2023-07-30T08:37:57;21.50;99.90
8662;DHT22;29684;47.722;9.388;2023-07-30T08:40:42;21.60;99.90
8662;DHT22;29684;47.722;9.388;2023-07-30T08:43:26;21.80;99.90
8662;DHT22;29684;47.722;9.388;2023-07-30T08:46:10;21.90;99.90
8662;DHT22;29684;47.722;9.388;2023-07-30T08:48:55;21.90;99.90
8662;DHT22;29684;47.722;9.388;2023-07-30T08:51:41;21.70;99.90
8662;DHT22;29684;47.722;9.388;2023-07-30T08:54:30;21.50;99.90
8662;DHT22;29684;47.722;9.388;2023-07-30T08:57:16;21.40;99.90
8662;DHT22;29684;47.722;9.388;2023-07-30T09:00:10;21.40;99.90
8662;DHT22;29684;47.722;9.388;2023-07-30T09:02:59;21.60;99.90
8662;DHT22;29684;47.722;9.388;2023-07-30T09:05:43;21.40;99.90
8662;DHT22;29684;47.722;9.388;2023-07-30T09:08:28;21.60;99.90
8662;DHT22;29684;47.722;9.388;2023-07-30T09:11:13;21.70;99.90
8662;DHT22;29684;47.722;9.388;2023-07-30T09:14:01;21.70;99.90
8662;DHT22;29684;47.722;9.388;2023-07-30T09:16:46;21.90;99.90
8662;DHT22;29684;47.722;9.388;2023-07-30T09:19:37;22.20;99.90
8662;DHT22;29684;47.722;9.388;2023-07-30T09:22:29;22.20;99.90
8662;DHT22;29684;47.722;9.388;2023-07-30T09:25:14;22.40;99.90
8662;DHT22;29684;47.722;9.388;2023-07-30T09:28:06;22.00;99.90
8662;DHT22;29684;47.722;9.388;2023-07-30T09:30:50;22.10;99.90
8662;DHT22;29684;47.722;9.388;2023-07-30T09:33:39;22.10;99.90
8662;DHT22;29684;47.722;9.388;2023-07-30T09:36:24;22.10;99.90
8662;DHT22;29684;47.722;9.388;2023-07-30T09:39:22;22.20;99.90
8662;DHT22;29684;47.722;9.388;2023-07-30T09:42:06;22.20;99.90
8662;DHT22;29684;47.722;9.388;2023-07-30T09:44:51;22.40;99.90
8662;DHT22;29684;47.722;9.388;2023-07-30T09:47:38;22.40;99.90
8662;DHT22;29684;47.722;9.388;2023-07-30T09:50:22;22.50;99.90
8662;DHT22;29684;47.722;9.388;2023-07-30T09:53:08;22.50;99.90
8662;DHT22;29684;47.722;9.388;2023-07-30T09:55:52;22.40;99.90
8662;DHT22;29684;47.722;9.388;2023-07-30T09:58:36;22.30;99.90
8662;DHT22;29684;47.722;9.388;2023-07-30T10:01:23;22.50;99.90
8662;DHT22;29684;47.722;9.388;2023-07-30T10:04:10;22.80;99.90
8662;DHT22;29684;47.722;9.388;2023-07-30T10:06:58;22.50;99.90
8662;DHT22;29684;47.722;9.388;2023-07-30T10:09:46;22.10;99.90
8662;DHT22;29684;47.722;9.388;2023-07-30T10:12:33;22.10;99.90
8662;DHT22;29684;47.722;9.388;2023-07-30T10:15:19;22.30;99.90
8662;DHT22;29684;47.722;9.388;2023-07-30T10:18:05;22.20;99.90
8662;DHT22;29684;47.722;9.388;2023-07-30T10:20:53;22.20;99.90
8662;DHT22;29684;47.722;9.388;2023-07-30T10:24:11;22.40;99.90
8662;DHT22;29684;47.722;9.388;2023-07-30T10:26:55;22.50;99.90
8662;DHT22;29684;47.722;9.388;2023-07-30T10:29:42;22.40;99.90
8662;DHT22;29684;47.722;9.388;2023-07-30T10:32:38;22.30;99.90
8662;DHT22;29684;47.722;9.388;2023-07-30T10:38:29;22.20;99.90
8662;DHT22;29684;47.722;9.388;2023-07-30T10:41:14;22.50;99.90
8662;DHT22;29684;47.722;9.388;2023-07-30T10:44:00;22.70;99.90
8662;DHT22;29684;47.722;9.388;2023-07-30T10:46:44;22.60;99.90
8662;DHT22;29684;47.722;9.388;2023-07-30T10:49:28;22.60;99.90
8662;DHT22;29684;47.722;9.388;2023-07-30T10:52:13;22.70;99.90
8662;DHT22;29684;47.722;9.388;2023-07-30T10:55:00;22.70;99.90
8662;DHT22;29684;47.722;9.388;2023-07-30T10:57:45;22.70;99.90
8662;DHT22;29684;47.722;9.388;2023-07-30T11:00:31;22.90;99.90
8662;DHT22;29684;47.722;9.388;2023-07-30T11:03:16;23.10;99.90
8662;DHT22;29684;47.722;9.388;2023-07-30T11:06:01;23.30;99.90
8662;DHT22;29684;47.722;9.388;2023-07-30T11:08:45;23.40;99.90
8662;DHT22;29684;47.722;9.388;2023-07-30T11:11:29;23.40;99.90
8662;DHT22;29684;47.722;9.388;2023-07-30T11:14:26;23.00;99.90
8662;DHT22;29684;47.722;9.388;2023-07-30T11:17:11;23.10;99.90
8662;DHT22;29684;47.722;9.388;2023-07-30T11:20:02;23.20;99.90
8662;DHT22;29684;47.722;9.388;2023-07-30T11:22:46;23.30;99.90
8662;DHT22;29684;47.722;9.388;2023-07-30T11:25:30;23.20;99.90
8662;DHT22;29684;47.722;9.388;2023-07-30T11:28:26;22.90;99.90
8662;DHT22;29684;47.722;9.388;2023-07-30T11:31:12;24.00;99.90
8662;DHT22;29684;47.722;9.388;2023-07-30T11:33:56;23.20;99.90
8662;DHT22;29684;47.722;9.388;2023-07-30T11:36:42;23.00;99.90
8662;DHT22;29684;47.722;9.388;2023-07-30T11:39:26;23.20;99.90
8662;DHT22;29684;47.722;9.388;2023-07-30T11:42:13;23.40;99.90
8662;DHT22;29684;47.722;9.388;2023-07-30T11:44:57;23.60;99.90
8662;DHT22;29684;47.722;9.388;2023-07-30T11:47:41;23.60;99.90
8662;DHT22;29684;47.722;9.388;2023-07-30T11:50:25;23.60;99.90
8662;DHT22;29684;47.722;9.388;2023-07-30T11:53:10;23.60;99.90
8662;DHT22;29684;47.722;9.388;2023-07-30T11:55:54;23.50;99.90
8662;DHT22;29684;47.722;9.388;2023-07-30T11:58:39;23.60;99.90
8662;DHT22;29684;47.722;9.388;2023-07-30T12:01:27;23.90;99.90
8662;DHT22;29684;47.722;9.388;2023-07-30T12:04:12;23.90;99.90
8662;DHT22;29684;47.722;9.388;2023-07-30T12:06:56;23.90;99.90
8662;DHT22;29684;47.722;9.388;2023-07-30T12:09:41;24.00;99.90
8662;DHT22;29684;47.722;9.388;2023-07-30T12:12:25;23.90;99.90
8662;DHT22;29684;47.722;9.388;2023-07-30T12:15:12;24.00;99.90
8662;DHT22;29684;47.722;9.388;2023-07-30T12:17:56;23.90;99.90
8662;DHT22;29684;47.722;9.388;2023-07-30T12:20:40;24.10;99.90
8662;DHT22;29684;47.722;9.388;2023-07-30T12:23:24;24.30;99.90
8662;DHT22;29684;47.722;9.388;2023-07-30T12:26:08;24.20;99.90
8662;DHT22;29684;47.722;9.388;2023-07-30T12:28:52;24.50;99.90
8662;DHT22;29684;47.722;9.388;2023-07-30T12:31:36;24.30;99.90
8662;DHT22;29684;47.722;9.388;2023-07-30T12:34:22;24.70;99.90
8662;DHT22;29684;47.722;9.388;2023-07-30T12:37:06;24.50;99.90
8662;DHT22;29684;47.722;9.388;2023-07-30T12:39:51;24.70;99.90
8662;DHT22;29684;47.722;9.388;2023-07-30T12:42:35;24.70;99.90
8662;DHT22;29684;47.722;9.388;2023-07-30T12:45:19;25.10;99.90
8662;DHT22;29684;47.722;9.388;2023-07-30T12:48:03;25.20;99.90
8662;DHT22;29684;47.722;9.388;2023-07-30T12:50:48;25.60;99.90
8662;DHT22;29684;47.722;9.388;2023-07-30T12:53:31;25.80;99.90
8662;DHT22;29684;47.722;9.388;2023-07-30T12:56:16;26.00;99.90
8662;DHT22;29684;47.722;9.388;2023-07-30T12:59:00;25.90;99.90
8662;DHT22;29684;47.722;9.388;2023-07-30T13:01:44;26.40;99.90
8662;DHT22;29684;47.722;9.388;2023-07-30T13:04:28;26.20;99.90
8662;DHT22;29684;47.722;9.388;2023-07-30T13:07:12;25.90;99.90
8662;DHT22;29684;47.722;9.388;2023-07-30T13:10:04;26.00;99.90
8662;DHT22;29684;47.722;9.388;2023-07-30T13:12:49;26.40;99.90
8662;DHT22;29684;47.722;9.388;2023-07-30T13:15:33;26.30;99.90
8662;DHT22;29684;47.722;9.388;2023-07-30T13:18:17;26.50;99.90
8662;DHT22;29684;47.722;9.388;2023-07-30T13:21:01;27.00;99.90
8662;DHT22;29684;47.722;9.388;2023-07-30T13:23:45;27.30;99.40
8662;DHT22;29684;47.722;9.388;2023-07-30T13:26:29;28.00;99.60
8662;DHT22;29684;47.722;9.388;2023-07-30T13:29:13;26.80;98.80
8662;DHT22;29684;47.722;9.388;2023-07-30T13:31:57;26.80;99.30
8662;DHT22;29684;47.722;9.388;2023-07-30T13:34:41;27.20;99.30
8662;DHT22;29684;47.722;9.388;2023-07-30T13:37:25;27.00;99.40
8662;DHT22;29684;47.722;9.388;2023-07-30T13:40:09;26.90;98.80
8662;DHT22;29684;47.722;9.388;2023-07-30T13:42:54;26.90;99.20
8662;DHT22;29684;47.722;9.388;2023-07-30T13:45:38;27.20;99.00
8662;DHT22;29684;47.722;9.388;2023-07-30T13:48:23;27.20;98.60
8662;DHT22;29684;47.722;9.388;2023-07-30T13:51:07;27.20;97.60
8662;DHT22;29684;47.722;9.388;2023-07-30T13:53:51;27.20;97.90
8662;DHT22;29684;47.722;9.388;2023-07-30T13:56:35;27.20;97.40
8662;DHT22;29684;47.722;9.388;2023-07-30T13:59:22;27.40;98.10
8662;DHT22;29684;47.722;9.388;2023-07-30T14:02:06;28.10;97.40
8662;DHT22;29684;47.722;9.388;2023-07-30T14:04:50;27.90;97.30
8662;DHT22;29684;47.722;9.388;2023-07-30T14:07:34;28.00;97.20
8662;DHT22;29684;47.722;9.388;2023-07-30T14:10:23;28.40;96.10
8662;DHT22;29684;47.722;9.388;2023-07-30T14:13:07;28.10;95.60
8662;DHT22;29684;47.722;9.388;2023-07-30T14:15:52;28.20;95.30
8662;DHT22;29684;47.722;9.388;2023-07-30T14:18:36;27.90;96.70
8662;DHT22;29684;47.722;9.388;2023-07-30T14:21:22;27.80;95.60
8662;DHT22;29684;47.722;9.388;2023-07-30T14:24:06;27.80;95.70
8662;DHT22;29684;47.722;9.388;2023-07-30T14:26:51;28.10;93.90
8662;DHT22;29684;47.722;9.388;2023-07-30T14:29:35;29.00;93.00
8662;DHT22;29684;47.722;9.388;2023-07-30T14:32:20;29.30;92.30
8662;DHT22;29684;47.722;9.388;2023-07-30T14:35:05;29.10;91.90
8662;DHT22;29684;47.722;9.388;2023-07-30T14:37:49;28.80;92.40
8662;DHT22;29684;47.722;9.388;2023-07-30T14:40:33;28.80;91.60
8662;DHT22;29684;47.722;9.388;2023-07-30T14:43:18;29.10;91.80
8662;DHT22;29684;47.722;9.388;2023-07-30T14:46:02;29.10;90.70
8662;DHT22;29684;47.722;9.388;2023-07-30T14:48:46;28.80;90.90
8662;DHT22;29684;47.722;9.388;2023-07-30T14:51:30;28.90;91.40
8662;DHT22;29684;47.722;9.388;2023-07-30T14:54:14;29.20;91.10
8662;DHT22;29684;47.722;9.388;2023-07-30T14:56:58;28.60;91.80
8662;DHT22;29684;47.722;9.388;2023-07-30T14:59:42;28.80;90.70
8662;DHT22;29684;47.722;9.388;2023-07-30T15:02:26;28.50;91.50
8662;DHT22;29684;47.722;9.388;2023-07-30T15:05:12;28.70;91.80
8662;DHT22;29684;47.722;9.388;2023-07-30T15:07:56;28.20;90.70
8662;DHT22;29684;47.722;9.388;2023-07-30T15:10:40;27.90;91.70
8662;DHT22;29684;47.722;9.388;2023-07-30T15:13:25;27.60;92.00
8662;DHT22;29684;47.722;9.388;2023-07-30T15:16:09;28.00;91.80
8662;DHT22;29684;47.722;9.388;2023-07-30T15:18:53;28.50;91.80
8662;DHT22;29684;47.722;9.388;2023-07-30T15:21:38;28.70;90.90
8662;DHT22;29684;47.722;9.388;2023-07-30T15:24:23;28.40;90.80
8662;DHT22;29684;47.722;9.388;2023-07-30T15:27:07;28.90;90.90
8662;DHT22;29684;47.722;9.388;2023-07-30T15:29:51;28.40;90.70
8662;DHT22;29684;47.722;9.388;2023-07-30T15:32:41;28.10;91.10
8662;DHT22;29684;47.722;9.388;2023-07-30T15:35:25;28.20;90.80
8662;DHT22;29684;47.722;9.388;2023-07-30T15:38:10;27.20;92.20
8662;DHT22;29684;47.722;9.388;2023-07-30T15:40:54;28.00;91.80
8662;DHT22;29684;47.722;9.388;2023-07-30T15:43:38;27.90;91.30
8662;DHT22;29684;47.722;9.388;2023-07-30T15:46:23;28.40;91.30
8662;DHT22;29684;47.722;9.388;2023-07-30T15:49:07;28.60;91.40
8662;DHT22;29684;47.722;9.388;2023-07-30T15:51:54;27.90;91.40
8662;DHT22;29684;47.722;9.388;2023-07-30T15:54:38;27.60;91.60
8662;DHT22;29684;47.722;9.388;2023-07-30T15:57:23;27.40;91.70
8662;DHT22;29684;47.722;9.388;2023-07-30T16:00:07;27.10;92.40
8662;DHT22;29684;47.722;9.388;2023-07-30T16:02:52;27.30;91.80
8662;DHT22;29684;47.722;9.388;2023-07-30T16:05:36;27.10;91.70
8662;DHT22;29684;47.722;9.388;2023-07-30T16:08:20;27.00;92.00
8662;DHT22;29684;47.722;9.388;2023-07-30T16:11:05;27.20;92.50
8662;DHT22;29684;47.722;9.388;2023-07-30T16:13:50;27.70;92.60
8662;DHT22;29684;47.722;9.388;2023-07-30T16:16:34;28.20;92.20
8662;DHT22;29684;47.722;9.388;2023-07-30T16:19:22;28.60;92.20
8662;DHT22;29684;47.722;9.388;2023-07-30T16:22:07;28.30;92.50
8662;DHT22;29684;47.722;9.388;2023-07-30T16:24:51;28.60;91.60
8662;DHT22;29684;47.722;9.388;2023-07-30T16:27:35;28.90;91.60
8662;DHT22;29684;47.722;9.388;2023-07-30T16:30:19;29.00;91.50
8662;DHT22;29684;47.722;9.388;2023-07-30T16:33:03;28.30;91.40
8662;DHT22;29684;47.722;9.388;2023-07-30T16:35:48;28.20;90.40
8662;DHT22;29684;47.722;9.388;2023-07-30T16:38:32;28.10;91.00
8662;DHT22;29684;47.722;9.388;2023-07-30T16:41:17;28.00;90.50
8662;DHT22;29684;47.722;9.388;2023-07-30T16:44:01;28.60;89.90
8662;DHT22;29684;47.722;9.388;2023-07-30T16:46:45;28.30;89.00
8662;DHT22;29684;47.722;9.388;2023-07-30T16:49:30;27.70;90.10
8662;DHT22;29684;47.722;9.388;2023-07-30T16:52:14;27.20;90.80
8662;DHT22;29684;47.722;9.388;2023-07-30T16:54:58;27.20;90.50
8662;DHT22;29684;47.722;9.388;2023-07-30T16:57:42;26.80;90.50
8662;DHT22;29684;47.722;9.388;2023-07-30T17:00:26;26.80;90.70
8662;DHT22;29684;47.722;9.388;2023-07-30T17:03:10;26.30;90.50
8662;DHT22;29684;47.722;9.388;2023-07-30T17:06:00;26.30;91.10
8662;DHT22;29684;47.722;9.388;2023-07-30T17:08:45;26.20;91.10
8662;DHT22;29684;47.722;9.388;2023-07-30T17:11:30;26.20;91.40
8662;DHT22;29684;47.722;9.388;2023-07-30T17:14:13;26.50;91.10
8662;DHT22;29684;47.722;9.388;2023-07-30T17:16:58;26.90;91.10
8662;DHT22;29684;47.722;9.388;2023-07-30T17:19:42;26.20;91.20
8662;DHT22;29684;47.722;9.388;2023-07-30T17:22:26;25.40;91.80
8662;DHT22;29684;47.722;9.388;2023-07-30T17:25:10;25.40;92.30
8662;DHT22;29684;47.722;9.388;2023-07-30T17:27:54;25.70;92.00
8662;DHT22;29684;47.722;9.388;2023-07-30T17:30:38;26.20;91.90
8662;DHT22;29684;47.722;9.388;2023-07-30T17:33:23;26.40;91.80
8662;DHT22;29684;47.722;9.388;2023-07-30T17:36:07;26.00;91.90
8662;DHT22;29684;47.722;9.388;2023-07-30T17:38:52;25.80;92.20
8662;DHT22;29684;47.722;9.388;2023-07-30T17:41:37;24.90;91.70